Time;durP1;ratioP1;P1;durP2;ratioP2;P2;SDS_P1;SDS_P2;PMS_P1;PMS_P2;Temp;Humidity;BMP_temperature;BMP_pressure;BME280_temperature;BME280_humidity;BME280_pressure;Samples;Min_cycle;Max_cycle;Signal;HPM_P1;HPM_P2
2022/08/02 00:01:27;;;;;;;6.13;0.60;;;21.50;81.60;;;;;;6220111;28;20046;-76
2022/08/02 00:04:30;;;;;;;2.63;0.60;;;21.50;82.00;;;;;;6222852;28;20439;-76
2022/08/02 00:07:32;;;;;;;0.40;0.17;;;21.40;82.10;;;;;;6225155;28;20046;-76
2022/08/02 00:10:34;;;;;;;1.77;0.50;;;21.40;82.50;;;;;;6224645;28;20057;-76
2022/08/02 00:13:36;;;;;;;2.83;0.50;;;21.30;82.80;;;;;;6224676;28;20041;-77
2022/08/02 00:16:37;;;;;;;0.85;0.50;;;21.30;83.10;;;;;;6224741;28;20049;-77
2022/08/02 00:19:40;;;;;;;1.80;0.98;;;21.20;83.30;;;;;;6224769;28;20492;-76
2022/08/02 00:22:42;;;;;;;1.77;0.50;;;21.20;83.60;;;;;;6224674;28;20381;-76
2022/08/02 00:25:44;;;;;;;2.63;0.47;;;21.00;84.10;;;;;;6224235;28;20397;-77
2022/08/02 00:28:45;;;;;;;4.35;0.60;;;21.10;84.80;;;;;;6224517;28;20049;-77
2022/08/02 00:31:47;;;;;;;2.28;0.50;;;20.90;85.30;;;;;;6231194;28;20049;-76
2022/08/02 00:34:51;;;;;;;1.17;0.50;;;20.90;85.70;;;;;;6224001;28;20053;-77
2022/08/02 00:37:52;;;;;;;2.63;0.75;;;20.70;86.20;;;;;;6223881;28;20411;-77
2022/08/02 00:41:00;;;;;;;0.85;0.47;;;20.80;86.40;;;;;;6223463;28;20384;-77
2022/08/02 00:44:02;;;;;;;3.63;0.95;;;20.70;86.40;;;;;;6221216;28;20046;-77
2022/08/02 00:47:03;;;;;;;3.08;0.90;;;20.70;86.80;;;;;;6224149;28;20558;-76
2022/08/02 00:50:07;;;;;;;0.98;0.47;;;20.60;87.00;;;;;;6223444;28;20590;-76
2022/08/02 00:53:10;;;;;;;2.17;0.60;;;20.60;87.20;;;;;;6223503;28;20508;-76
2022/08/02 00:56:11;;;;;;;3.53;1.08;;;20.50;87.40;;;;;;6223364;28;20057;-77
2022/08/02 00:59:13;;;;;;;1.77;0.73;;;20.50;87.60;;;;;;6223993;28;20050;-77
2022/08/02 01:02:15;;;;;;;0.95;0.50;;;20.50;87.70;;;;;;6223784;28;20042;-76
2022/08/02 01:05:18;;;;;;;2.25;1.65;;;20.50;87.90;;;;;;6223627;28;20141;-76
2022/08/02 01:08:20;;;;;;;1.52;0.77;;;20.50;88.30;;;;;;6223619;28;20049;-78
2022/08/02 01:11:22;;;;;;;1.95;0.57;;;20.50;89.10;;;;;;6222121;28;20049;-77
2022/08/02 01:14:25;;;;;;;0.50;0.38;;;20.50;88.70;;;;;;6222576;28;20057;-76
2022/08/02 01:17:34;;;;;;;0.77;0.38;;;20.50;89.00;;;;;;6222580;28;20048;-77
2022/08/02 01:20:53;;;;;;;1.65;0.70;;;20.60;89.20;;;;;;6222578;28;20046;-76
2022/08/02 01:24:08;;;;;;;3.10;0.60;;;20.50;89.30;;;;;;6223007;28;20049;-76
2022/08/02 01:27:24;;;;;;;1.55;0.60;;;20.50;89.80;;;;;;6223199;28;20415;-77
2022/08/02 01:30:29;;;;;;;2.45;0.55;;;20.50;90.10;;;;;;6222638;28;20041;-77
2022/08/02 01:33:37;;;;;;;2.67;0.40;;;20.50;90.00;;;;;;6237013;28;20053;-76
2022/08/02 01:36:41;;;;;;;1.25;0.40;;;20.50;90.10;;;;;;6247607;28;20472;-76
2022/08/02 01:39:45;;;;;;;2.35;0.63;;;20.50;90.00;;;;;;6247439;28;20049;-77
2022/08/02 01:42:52;;;;;;;1.33;0.55;;;20.50;89.80;;;;;;6247267;28;20396;-76
2022/08/02 01:45:58;;;;;;;0.68;0.43;;;20.50;89.80;;;;;;6246757;28;20059;-77
2022/08/02 01:49:05;;;;;;;1.83;0.50;;;20.40;89.80;;;;;;6247566;28;20056;-77
2022/08/02 01:52:22;;;;;;;2.25;0.85;;;20.30;90.00;;;;;;6247120;28;20057;-76
2022/08/02 01:55:27;;;;;;;1.40;1.08;;;20.20;90.10;;;;;;6247635;28;20045;-77
2022/08/02 01:58:34;;;;;;;2.70;0.80;;;20.20;90.20;;;;;;6247403;28;20518;-76
2022/08/02 02:01:39;;;;;;;1.27;0.60;;;20.20;90.10;;;;;;6247571;28;20041;-76
2022/08/02 02:04:42;;;;;;;1.63;0.77;;;20.10;90.20;;;;;;6247218;28;20041;-77
2022/08/02 02:07:45;;;;;;;1.25;0.52;;;20.10;90.40;;;;;;6247818;28;20496;-77
2022/08/02 02:10:47;;;;;;;3.40;0.65;;;20.10;90.50;;;;;;6246784;28;20045;-77
2022/08/02 02:13:49;;;;;;;1.02;0.47;;;20.10;90.60;;;;;;6246823;28;20550;-77
2022/08/02 02:16:54;;;;;;;4.45;0.70;;;20.00;90.60;;;;;;6246830;28;20132;-77
2022/08/02 02:19:59;;;;;;;0.82;0.57;;;20.00;90.80;;;;;;6246562;28;20053;-77
2022/08/02 02:23:01;;;;;;;1.30;0.52;;;20.00;91.00;;;;;;6247095;28;20067;-76
2022/08/02 02:26:05;;;;;;;3.83;0.82;;;19.90;91.00;;;;;;6246806;28;20053;-77
2022/08/02 02:29:09;;;;;;;1.15;0.40;;;19.90;91.10;;;;;;6246306;28;20045;-77
2022/08/02 02:32:13;;;;;;;0.93;0.70;;;19.90;91.20;;;;;;6243833;28;20519;-77
2022/08/02 02:35:17;;;;;;;1.42;0.90;;;19.80;91.30;;;;;;6237909;28;20511;-77
2022/08/02 02:38:21;;;;;;;2.88;0.63;;;19.80;91.60;;;;;;6245984;28;20067;-77
2022/08/02 02:41:25;;;;;;;0.75;0.60;;;19.80;91.70;;;;;;6245908;28;20053;-77
2022/08/02 02:44:29;;;;;;;1.30;0.57;;;19.80;91.60;;;;;;6245888;28;20049;-77
2022/08/02 02:47:34;;;;;;;2.72;1.25;;;19.90;91.60;;;;;;6246930;28;20049;-77
2022/08/02 02:50:37;;;;;;;2.85;0.85;;;20.10;91.40;;;;;;6245937;28;20049;-77
2022/08/02 02:53:40;;;;;;;1.65;0.73;;;20.20;91.30;;;;;;6246185;28;20069;-77
2022/08/02 02:56:43;;;;;;;2.05;0.70;;;20.40;91.10;;;;;;6245814;28;20046;-77
2022/08/02 02:59:46;;;;;;;3.55;0.70;;;20.40;91.00;;;;;;6246376;28;20056;-77
2022/08/02 03:02:49;;;;;;;1.50;0.73;;;20.60;91.00;;;;;;6245626;28;20411;-77
2022/08/02 03:05:51;;;;;;;3.45;0.90;;;20.70;90.90;;;;;;6246051;28;20049;-77
2022/08/02 03:08:52;;;;;;;2.83;0.80;;;20.70;90.80;;;;;;6245921;28;20056;-77
2022/08/02 03:11:55;;;;;;;2.03;0.73;;;20.80;90.70;;;;;;6246126;28;20057;-77
2022/08/02 03:14:58;;;;;;;3.10;0.88;;;20.90;90.70;;;;;;6246298;28;20045;-77
2022/08/02 03:18:01;;;;;;;2.95;0.80;;;21.00;90.60;;;;;;6245922;28;20049;-77
2022/08/02 03:21:05;;;;;;;4.47;0.50;;;21.10;90.50;;;;;;6245830;28;20565;-78
2022/08/02 03:24:07;;;;;;;2.65;0.90;;;21.10;90.40;;;;;;6253226;28;20042;-78
2022/08/02 03:27:09;;;;;;;1.73;1.10;;;21.20;90.40;;;;;;6254252;28;20056;-78
2022/08/02 03:30:12;;;;;;;2.65;0.68;;;21.10;90.40;;;;;;6253300;28;20136;-77
2022/08/02 03:33:16;;;;;;;2.85;0.80;;;21.10;90.60;;;;;;6244705;28;20467;-78
2022/08/02 03:36:21;;;;;;;3.55;1.45;;;21.10;90.60;;;;;;6229635;28;20705;-78
2022/08/02 03:39:24;;;;;;;3.63;0.80;;;21.00;90.70;;;;;;6230740;28;20050;-78
2022/08/02 03:42:27;;;;;;;2.08;0.75;;;21.00;90.80;;;;;;6232013;28;20054;-79
2022/08/02 03:45:30;;;;;;;5.70;0.70;;;20.90;90.90;;;;;;6231820;28;20049;-77
2022/08/02 03:48:34;;;;;;;5.75;1.40;;;20.90;91.10;;;;;;6231848;28;20045;-78
2022/08/02 03:51:36;;;;;;;5.57;1.65;;;20.80;91.20;;;;;;6231303;28;20405;-77
2022/08/02 03:54:38;;;;;;;5.85;1.38;;;20.70;91.60;;;;;;6231077;28;20041;-78
2022/08/02 03:57:41;;;;;;;1.85;0.90;;;20.70;91.90;;;;;;6231469;28;20053;-78
2022/08/02 04:00:43;;;;;;;1.40;0.95;;;20.60;92.00;;;;;;6230849;28;20050;-77
2022/08/02 04:03:46;;;;;;;2.28;1.10;;;20.60;92.00;;;;;;6231576;28;20049;-78
2022/08/02 04:06:48;;;;;;;1.35;0.85;;;20.50;92.20;;;;;;6230412;28;20061;-77
2022/08/02 04:09:49;;;;;;;2.00;1.15;;;20.50;92.30;;;;;;6230311;28;20041;-78
2022/08/02 04:12:52;;;;;;;3.67;0.88;;;20.50;92.30;;;;;;6230879;28;20042;-79
2022/08/02 04:15:58;;;;;;;0.80;0.50;;;20.40;92.20;;;;;;6231145;28;20534;-77
2022/08/02 04:19:05;;;;;;;2.33;0.88;;;20.40;92.20;;;;;;6229936;28;20057;-80
2022/08/02 04:22:12;;;;;;;1.65;1.02;;;20.40;92.20;;;;;;6229229;28;20053;-80
2022/08/02 04:25:15;;;;;;;1.63;0.70;;;20.40;92.20;;;;;;6229821;28;20057;-79
2022/08/02 04:28:17;;;;;;;0.82;0.57;;;20.30;92.40;;;;;;6229539;28;20046;-80
2022/08/02 04:31:19;;;;;;;3.63;0.73;;;20.30;92.40;;;;;;6230313;28;20054;-79
2022/08/02 04:34:22;;;;;;;2.45;1.17;;;20.40;92.50;;;;;;6235147;28;20042;-80
2022/08/02 04:37:25;;;;;;;5.10;1.08;;;20.40;92.50;;;;;;6229903;28;20056;-81
2022/08/02 04:40:27;;;;;;;2.08;0.88;;;20.50;92.50;;;;;;6229049;28;20468;-79
2022/08/02 04:43:29;;;;;;;1.70;0.70;;;20.50;92.40;;;;;;6229331;28;20488;-80
2022/08/02 04:46:31;;;;;;;6.80;1.30;;;20.60;92.50;;;;;;6229257;28;20050;-81
2022/08/02 04:49:34;;;;;;;1.30;0.60;;;20.70;92.40;;;;;;6228604;28;20121;-80
2022/08/02 04:52:36;;;;;;;1.63;0.60;;;20.90;92.20;;;;;;6228919;28;20481;-79
2022/08/02 04:55:37;;;;;;;1.33;0.90;;;21.00;91.80;;;;;;6229600;28;20049;-80
2022/08/02 04:58:39;;;;;;;2.08;1.00;;;21.20;91.80;;;;;;6229539;28;20053;-79
2022/08/02 05:01:41;;;;;;;0.80;0.57;;;21.30;91.60;;;;;;6228218;28;20050;-77
2022/08/02 05:04:44;;;;;;;1.83;0.60;;;21.60;91.30;;;;;;6229114;28;20045;-78
2022/08/02 05:07:46;;;;;;;3.03;1.08;;;21.70;91.10;;;;;;6228820;28;20053;-78
2022/08/02 05:10:47;;;;;;;1.73;0.70;;;21.80;90.80;;;;;;6228398;28;20045;-78
2022/08/02 05:13:49;;;;;;;2.10;1.10;;;22.00;90.60;;;;;;6227490;28;20137;-77
2022/08/02 05:16:51;;;;;;;2.78;0.80;;;22.10;90.30;;;;;;6217430;28;20052;-77
2022/08/02 05:19:54;;;;;;;1.00;0.70;;;22.30;90.00;;;;;;6220304;28;20622;-78
2022/08/02 05:22:56;;;;;;;2.88;1.30;;;22.40;89.40;;;;;;6225397;28;20497;-78
2022/08/02 05:25:57;;;;;;;1.77;1.20;;;23.00;88.30;;;;;;6227972;28;20050;-79
2022/08/02 05:28:59;;;;;;;6.55;0.75;;;24.10;84.00;;;;;;6228355;28;20038;-78
2022/08/02 05:32:01;;;;;;;2.25;0.90;;;25.30;80.10;;;;;;6228468;28;20054;-79
2022/08/02 05:35:05;;;;;;;4.28;1.08;;;26.10;75.80;;;;;;6231408;28;20046;-81
2022/08/02 05:38:08;;;;;;;3.05;0.70;;;26.30;74.90;;;;;;6236277;28;20104;-79
2022/08/02 05:41:09;;;;;;;1.55;0.70;;;26.50;74.30;;;;;;6228751;28;20538;-79
2022/08/02 05:44:11;;;;;;;1.25;0.95;;;26.70;73.60;;;;;;6227460;28;20050;-80
2022/08/02 05:47:13;;;;;;;1.48;0.70;;;27.10;72.40;;;;;;6219143;28;20165;-82
2022/08/02 05:50:16;;;;;;;6.45;1.23;;;27.40;70.80;;;;;;6203890;28;20054;-80
2022/08/02 05:53:27;;;;;;;3.80;1.00;;;28.00;69.60;;;;;;6205594;28;20042;-81
2022/08/02 05:56:34;;;;;;;5.72;1.10;;;28.50;67.30;;;;;;6209698;28;20411;-83
2022/08/02 05:59:47;;;;;;;6.20;1.00;;;28.90;65.70;;;;;;6229122;28;20141;-82
2022/08/02 06:03:15;;;;;;;7.53;1.50;;;29.40;64.00;;;;;;6228958;28;20522;-82
2022/08/02 06:06:22;;;;;;;3.20;0.90;;;29.80;62.00;;;;;;6230031;28;20053;-82
2022/08/02 06:09:25;;;;;;;7.13;1.30;;;30.50;59.90;;;;;;6229166;28;20046;-81
2022/08/02 06:12:29;;;;;;;2.42;1.05;;;31.30;57.30;;;;;;6231608;28;20037;-82
2022/08/02 06:15:31;;;;;;;2.25;1.40;;;31.80;55.00;;;;;;6230849;28;20042;-82
2022/08/02 06:18:34;;;;;;;6.80;1.17;;;32.10;53.50;;;;;;6210870;28;20046;-81
2022/08/02 06:21:39;;;;;;;3.25;1.70;;;32.10;53.00;;;;;;6204410;28;20046;-82
2022/08/02 06:24:43;;;;;;;5.05;1.85;;;31.60;53.00;;;;;;6204761;28;20046;-81
2022/08/02 06:27:49;;;;;;;3.58;1.67;;;30.80;54.20;;;;;;6204376;28;20054;-82
2022/08/02 06:30:50;;;;;;;11.23;2.90;;;30.30;55.90;;;;;;6203991;28;20050;-81
2022/08/02 06:33:52;;;;;;;1.73;1.42;;;29.80;57.20;;;;;;6203762;28;20446;-82
2022/08/02 06:37:04;;;;;;;2.92;1.30;;;29.50;58.00;;;;;;6220913;28;20450;-82
2022/08/02 06:40:13;;;;;;;4.32;1.70;;;29.20;58.80;;;;;;6230647;28;20050;-83
2022/08/02 06:43:21;;;;;;;5.35;2.03;;;29.10;59.30;;;;;;6227083;28;20054;-80
2022/08/02 06:46:22;;;;;;;2.13;1.20;;;29.00;59.70;;;;;;6226047;28;20508;-82
2022/08/02 06:49:24;;;;;;;5.60;1.52;;;29.00;59.60;;;;;;6228042;28;20060;-81
2022/08/02 06:52:29;;;;;;;3.50;1.63;;;29.00;59.60;;;;;;6227644;28;20041;-81
2022/08/02 06:55:32;;;;;;;4.85;1.70;;;29.10;59.60;;;;;;6227158;28;20137;-82
2022/08/02 06:58:33;;;;;;;3.25;1.50;;;29.00;59.60;;;;;;6226827;28;20053;-82
2022/08/02 07:01:35;;;;;;;3.83;1.67;;;28.90;59.60;;;;;;6227147;28;20512;-81
2022/08/02 07:04:37;;;;;;;2.67;1.60;;;29.00;59.70;;;;;;6228213;28;20416;-81
2022/08/02 07:07:40;;;;;;;6.55;2.03;;;28.90;59.90;;;;;;6227462;28;20522;-80
2022/08/02 07:10:41;;;;;;;3.53;1.88;;;28.90;59.90;;;;;;6226491;28;20060;-82
2022/08/02 07:13:43;;;;;;;3.72;1.50;;;28.90;60.00;;;;;;6229149;28;20054;-82
2022/08/02 07:16:45;;;;;;;5.32;1.55;;;29.00;60.00;;;;;;6218503;28;20046;-81
2022/08/02 07:19:46;;;;;;;4.10;1.42;;;29.20;59.70;;;;;;6207962;28;20050;-79
2022/08/02 07:22:49;;;;;;;4.07;1.95;;;29.40;59.20;;;;;;6207884;28;20057;-82
2022/08/02 07:25:51;;;;;;;3.38;1.52;;;29.60;58.60;;;;;;6224909;28;20058;-82
2022/08/02 07:28:53;;;;;;;3.03;1.73;;;29.80;57.60;;;;;;6232750;28;20042;-82
2022/08/02 07:31:55;;;;;;;6.07;1.65;;;29.70;57.70;;;;;;6231948;28;20053;-83
2022/08/02 07:34:58;;;;;;;2.90;1.95;;;29.80;57.50;;;;;;6232953;28;20052;-81
2022/08/02 07:38:01;;;;;;;2.70;1.67;;;30.20;56.90;;;;;;6237487;28;20042;-83
2022/08/02 07:41:02;;;;;;;3.15;1.70;;;30.30;56.10;;;;;;6232490;28;20046;-83
2022/08/02 07:44:05;;;;;;;2.13;1.67;;;30.50;55.60;;;;;;6232975;28;20057;-83
2022/08/02 07:47:06;;;;;;;3.08;1.52;;;30.60;55.10;;;;;;6224902;28;20050;-83
2022/08/02 07:50:10;;;;;;;4.82;1.50;;;30.70;55.00;;;;;;6207616;28;20046;-84
2022/08/02 07:53:13;;;;;;;6.88;1.95;;;30.80;54.60;;;;;;6208933;28;20109;-82
2022/08/02 07:56:15;;;;;;;3.67;1.60;;;30.90;54.10;;;;;;6207889;28;20038;-83
2022/08/02 07:59:17;;;;;;;5.05;1.60;;;30.90;53.80;;;;;;6210389;28;20140;-84
2022/08/02 08:02:19;;;;;;;6.97;2.33;;;30.90;53.80;;;;;;6210343;28;20049;-84
2022/08/02 08:05:21;;;;;;;2.90;1.30;;;31.10;53.40;;;;;;6211292;28;20069;-84
2022/08/02 08:08:24;;;;;;;4.97;1.60;;;31.30;53.00;;;;;;6211389;28;20044;-83
2022/08/02 08:11:26;;;;;;;1.25;1.15;;;31.40;52.80;;;;;;6211687;28;20056;-84
2022/08/02 08:14:27;;;;;;;3.75;1.70;;;31.60;52.60;;;;;;6227633;28;20034;-80
2022/08/02 08:17:29;;;;;;;5.53;1.55;;;31.70;51.90;;;;;;6224598;28;20057;-83
2022/08/02 08:20:31;;;;;;;4.35;2.17;;;31.60;52.00;;;;;;6204401;28;20642;-82
2022/08/02 08:23:35;;;;;;;4.97;1.20;;;31.80;52.00;;;;;;6205329;28;20511;-83
2022/08/02 08:26:38;;;;;;;4.97;1.33;;;32.00;50.80;;;;;;6204246;28;20046;-81
2022/08/02 08:29:41;;;;;;;3.78;1.20;;;31.70;50.10;;;;;;6204884;28;20427;-84
2022/08/02 08:32:42;;;;;;;2.28;1.30;;;31.40;50.70;;;;;;6203301;28;20523;-82
2022/08/02 08:35:44;;;;;;;1.38;1.20;;;31.40;50.70;;;;;;6205651;28;20054;-82
2022/08/02 08:38:49;;;;;;;2.75;1.83;;;31.30;50.60;;;;;;6222314;28;20041;-81
2022/08/02 08:41:50;;;;;;;8.65;2.25;;;31.20;50.40;;;;;;6252532;28;20439;-80
2022/08/02 08:44:52;;;;;;;3.47;1.42;;;31.10;50.30;;;;;;6245530;28;20049;-82
2022/08/02 08:48:01;;;;;;;2.72;1.10;;;31.10;50.00;;;;;;6229153;28;20060;-80
2022/08/02 08:51:07;;;;;;;2.05;1.05;;;31.20;49.40;;;;;;6228344;28;20058;-81
2022/08/02 08:54:15;;;;;;;1.17;0.70;;;31.00;49.80;;;;;;6227257;28;20453;-78
2022/08/02 08:57:18;;;;;;;3.67;1.20;;;31.10;49.60;;;;;;6226052;28;20050;-79
2022/08/02 09:00:20;;;;;;;4.22;1.73;;;30.90;49.70;;;;;;6192326;28;20152;-79
2022/08/02 09:03:22;;;;;;;2.58;1.15;;;30.90;50.00;;;;;;6226865;28;20062;-78
2022/08/02 09:06:24;;;;;;;1.73;1.30;;;30.90;49.90;;;;;;6225387;28;20050;-79
2022/08/02 09:09:27;;;;;;;1.85;1.08;;;30.90;50.20;;;;;;6225963;28;20431;-77
2022/08/02 09:12:29;;;;;;;1.98;1.00;;;30.90;49.90;;;;;;6225858;28;20045;-78
2022/08/02 09:15:30;;;;;;;2.10;1.02;;;30.50;50.30;;;;;;6226948;28;20057;-78
2022/08/02 09:18:33;;;;;;;1.98;0.95;;;30.50;50.60;;;;;;6206391;28;20453;-78
2022/08/02 09:21:38;;;;;;;1.55;0.70;;;30.50;49.90;;;;;;6214804;28;20068;-79
2022/08/02 09:24:45;;;;;;;2.38;1.35;;;30.60;50.00;;;;;;6228332;28;20396;-79
2022/08/02 09:27:48;;;;;;;1.75;1.13;;;31.00;49.20;;;;;;6228624;28;20050;-79
2022/08/02 09:30:50;;;;;;;4.38;0.98;;;31.40;49.30;;;;;;6227912;28;20045;-79
2022/08/02 09:33:53;;;;;;;4.70;1.00;;;31.60;48.10;;;;;;6228379;28;20049;-80
2022/08/02 09:36:54;;;;;;;2.38;0.95;;;31.80;47.50;;;;;;6228388;28;20052;-79
2022/08/02 09:39:59;;;;;;;1.55;1.00;;;31.90;47.50;;;;;;6238951;28;20057;-79
2022/08/02 09:43:01;;;;;;;0.77;0.70;;;31.80;47.00;;;;;;6253066;28;20049;-79
2022/08/02 09:46:13;;;;;;;1.67;0.82;;;31.80;47.40;;;;;;6238200;28;20052;-79
2022/08/02 09:49:16;;;;;;;1.08;0.95;;;32.00;47.00;;;;;;6229729;28;20046;-78
2022/08/02 09:52:23;;;;;;;3.75;1.10;;;32.00;46.70;;;;;;6229346;28;20049;-78
2022/08/02 09:55:26;;;;;;;1.60;0.95;;;31.90;46.70;;;;;;6227380;28;20041;-78
2022/08/02 09:58:28;;;;;;;2.22;1.00;;;31.70;46.60;;;;;;6225652;28;20650;-77
2022/08/02 10:01:33;;;;;;;4.72;0.93;;;31.70;47.40;;;;;;6226747;28;20476;-78
2022/08/02 10:04:35;;;;;;;1.48;0.93;;;32.20;46.90;;;;;;6228380;28;20037;-78
2022/08/02 10:07:37;;;;;;;3.92;1.13;;;33.20;45.60;;;;;;6228546;28;20054;-79
2022/08/02 10:10:41;;;;;;;5.50;1.30;;;34.50;43.70;;;;;;6226612;28;20527;-79
2022/08/02 10:13:43;;;;;;;1.10;0.70;;;35.10;42.10;;;;;;6226609;28;20046;-78
2022/08/02 10:16:44;;;;;;;1.42;1.00;;;35.40;41.60;;;;;;6214779;28;20053;-78
2022/08/02 10:19:47;;;;;;;1.83;1.05;;;35.20;41.40;;;;;;6203901;28;20050;-78
2022/08/02 10:22:50;;;;;;;2.55;1.00;;;34.90;42.10;;;;;;6203622;28;20050;-78
2022/08/02 10:25:53;;;;;;;2.30;0.90;;;34.80;42.20;;;;;;6201885;28;20049;-78
2022/08/02 10:28:55;;;;;;;3.97;0.85;;;34.90;41.90;;;;;;6202067;28;20524;-79
2022/08/02 10:32:01;;;;;;;4.15;1.00;;;35.00;42.70;;;;;;6202070;28;20070;-78
2022/08/02 10:35:07;;;;;;;2.90;1.10;;;35.20;42.50;;;;;;6203493;28;20051;-79
2022/08/02 10:38:11;;;;;;;2.75;1.00;;;35.50;42.30;;;;;;6202496;28;20053;-79
2022/08/02 10:41:14;;;;;;;1.60;0.90;;;35.70;41.90;;;;;;6202250;28;20065;-78
2022/08/02 10:44:24;;;;;;;1.25;0.98;;;35.90;41.20;;;;;;6204232;28;20074;-79
2022/08/02 10:47:26;;;;;;;3.03;1.20;;;35.70;40.90;;;;;;6217185;28;20417;-78
2022/08/02 10:50:53;;;;;;;2.53;1.08;;;35.30;41.30;;;;;;6202627;28;20050;-78
2022/08/02 10:54:08;;;;;;;1.20;0.93;;;35.10;41.40;;;;;;6200778;28;20057;-79
2022/08/02 10:57:20;;;;;;;4.93;1.25;;;35.20;41.70;;;;;;6213258;28;20396;-77
2022/08/02 11:00:27;;;;;;;6.95;1.05;;;35.20;41.20;;;;;;6222875;28;20127;-77
2022/08/02 11:03:38;;;;;;;3.10;1.10;;;34.90;41.70;;;;;;6223778;28;20061;-78
2022/08/02 11:07:06;;;;;;;2.22;1.13;;;34.60;42.20;;;;;;6221924;28;20562;-78
2022/08/02 11:10:27;;;;;;;1.73;1.08;;;34.80;42.10;;;;;;6223119;28;20397;-78
2022/08/02 11:13:31;;;;;;;1.33;0.77;;;35.10;41.60;;;;;;6225087;28;20527;-77
2022/08/02 11:17:13;;;;;;;1.25;0.80;;;35.50;41.00;;;;;;6221439;28;20046;-78
2022/08/02 11:20:19;;;;;;;1.23;0.90;;;36.10;40.20;;;;;;6199563;28;20077;-78
2022/08/02 11:23:37;;;;;;;1.17;0.93;;;36.40;39.20;;;;;;6203858;28;20385;-78
2022/08/02 11:26:44;;;;;;;1.67;0.80;;;36.50;39.10;;;;;;6223213;28;20046;-77
2022/08/02 11:29:48;;;;;;;4.43;1.10;;;36.90;38.60;;;;;;6221630;28;20054;-79
2022/08/02 11:32:50;;;;;;;1.65;0.90;;;37.20;38.00;;;;;;6222030;28;20068;-79
2022/08/02 11:35:52;;;;;;;3.63;1.33;;;37.40;37.00;;;;;;6222316;28;20488;-78
2022/08/02 11:39:08;;;;;;;2.00;0.98;;;37.30;37.00;;;;;;6222248;28;20050;-78
2022/08/02 11:42:10;;;;;;;6.78;1.13;;;36.90;37.70;;;;;;6227428;28;20060;-78
2022/08/02 11:45:15;;;;;;;1.85;0.82;;;36.30;38.40;;;;;;6236226;28;20042;-78
2022/08/02 11:48:31;;;;;;;1.50;1.00;;;35.80;39.00;;;;;;6206633;28;20412;-79
2022/08/02 11:51:32;;;;;;;2.40;1.10;;;35.90;39.30;;;;;;6199723;28;20046;-78
2022/08/02 11:54:36;;;;;;;1.85;0.93;;;36.10;39.20;;;;;;6199267;28;20084;-77
2022/08/02 11:57:39;;;;;;;4.25;0.85;;;36.50;38.50;;;;;;6196904;28;20461;-77
2022/08/02 12:00:45;;;;;;;5.13;1.15;;;36.80;38.10;;;;;;6200095;28;20046;-78
2022/08/02 12:03:50;;;;;;;2.00;0.77;;;37.10;37.80;;;;;;6202333;28;20120;-78
2022/08/02 12:06:57;;;;;;;1.30;0.90;;;37.40;37.30;;;;;;6201648;28;20053;-77
2022/08/02 12:10:00;;;;;;;1.83;1.13;;;37.60;36.80;;;;;;6201735;28;20566;-78
2022/08/02 12:13:02;;;;;;;2.05;1.17;;;37.80;36.50;;;;;;6202100;28;20149;-78
2022/08/02 12:19:27;;;;;;;3.35;0.75;;;38.30;35.80;;;;;;6202081;28;20120;-79
2022/08/02 12:22:29;;;;;;;6.30;1.13;;;38.60;35.40;;;;;;6201848;28;20054;-79
2022/08/02 12:25:30;;;;;;;1.83;0.88;;;38.80;35.20;;;;;;6203629;28;20042;-80
2022/08/02 12:28:35;;;;;;;1.48;0.90;;;38.90;35.00;;;;;;6205765;28;20050;-78
2022/08/02 12:31:46;;;;;;;1.55;0.98;;;38.90;34.90;;;;;;6206220;28;20113;-80
2022/08/02 12:35:01;;;;;;;3.33;1.00;;;38.80;34.60;;;;;;6205355;28;20118;-79
2022/08/02 12:38:10;;;;;;;2.95;1.05;;;39.00;34.40;;;;;;6206359;28;20559;-79
2022/08/02 12:41:14;;;;;;;1.65;0.85;;;39.30;34.20;;;;;;6206417;28;20070;-78
2022/08/02 12:44:17;;;;;;;0.70;0.55;;;39.50;33.90;;;;;;6239401;28;20095;-79
2022/08/02 12:47:20;;;;;;;1.77;0.75;;;39.50;33.60;;;;;;6221460;28;20060;-79
2022/08/02 12:50:25;;;;;;;5.38;0.73;;;39.70;33.60;;;;;;6205088;28;20074;-78
2022/08/02 12:53:32;;;;;;;0.75;0.60;;;40.00;33.10;;;;;;6202394;28;20069;-79
2022/08/02 12:56:38;;;;;;;2.67;0.95;;;40.00;33.00;;;;;;6202458;28;20042;-78
2022/08/02 12:59:43;;;;;;;3.72;0.95;;;40.30;32.60;;;;;;6204418;28;20050;-78
2022/08/02 13:02:46;;;;;;;0.47;0.47;;;40.40;32.40;;;;;;6204657;28;20516;-78
2022/08/02 13:05:48;;;;;;;2.78;0.70;;;40.50;32.20;;;;;;6205242;28;20039;-79
2022/08/02 13:08:50;;;;;;;0.95;0.60;;;40.60;32.20;;;;;;6206109;28;20042;-78
2022/08/02 13:11:52;;;;;;;1.25;0.70;;;40.40;32.10;;;;;;6203404;28;20058;-78
2022/08/02 13:14:54;;;;;;;7.78;0.70;;;40.30;31.90;;;;;;6222749;28;20042;-78
2022/08/02 13:17:57;;;;;;;1.45;0.60;;;40.20;32.10;;;;;;6212295;28;20053;-78
2022/08/02 13:20:59;;;;;;;2.70;0.77;;;40.00;32.10;;;;;;6212487;28;20053;-78
2022/08/02 13:24:01;;;;;;;2.15;0.93;;;39.70;32.50;;;;;;6226051;28;20061;-78
2022/08/02 13:27:03;;;;;;;2.35;0.43;;;39.60;32.30;;;;;;6228038;28;20049;-79
2022/08/02 13:30:06;;;;;;;2.10;0.70;;;39.60;32.00;;;;;;6226738;28;20057;-79
2022/08/02 13:33:09;;;;;;;0.82;0.68;;;39.70;32.00;;;;;;6227946;28;20419;-78
2022/08/02 13:36:11;;;;;;;0.52;0.40;;;39.70;31.60;;;;;;6226858;28;20472;-77
2022/08/02 13:39:13;;;;;;;1.48;0.50;;;39.80;31.50;;;;;;6228068;28;20056;-80
2022/08/02 13:42:15;;;;;;;1.00;0.50;;;39.80;31.20;;;;;;6207543;28;20050;-79
2022/08/02 13:45:17;;;;;;;1.42;0.57;;;39.80;31.00;;;;;;6228006;28;20511;-78
2022/08/02 13:48:20;;;;;;;1.17;0.47;;;39.80;31.40;;;;;;6229671;28;20052;-79
2022/08/02 13:51:22;;;;;;;1.88;0.60;;;40.00;31.30;;;;;;6228539;28;20057;-78
2022/08/02 13:54:23;;;;;;;0.85;0.55;;;40.00;31.20;;;;;;6229540;28;20053;-78
2022/08/02 13:57:25;;;;;;;1.48;0.57;;;40.10;31.30;;;;;;6229624;28;20058;-79
2022/08/02 14:00:27;;;;;;;2.25;0.57;;;40.10;31.00;;;;;;6229826;28;20049;-79
2022/08/02 14:03:30;;;;;;;0.70;0.45;;;40.10;31.50;;;;;;6229287;28;20054;-78
2022/08/02 14:06:32;;;;;;;0.43;0.40;;;40.10;30.70;;;;;;6228729;28;20049;-78
2022/08/02 14:09:34;;;;;;;2.25;0.45;;;39.90;30.30;;;;;;6227829;28;20060;-78
2022/08/02 14:12:36;;;;;;;0.50;0.50;;;39.90;30.30;;;;;;6228462;28;20042;-77
2022/08/02 14:15:38;;;;;;;0.35;0.28;;;40.00;30.30;;;;;;6223746;28;20042;-79
2022/08/02 14:18:41;;;;;;;2.25;0.50;;;40.10;30.20;;;;;;6224840;28;20053;-78
2022/08/02 14:21:43;;;;;;;1.02;0.50;;;40.10;30.00;;;;;;6227027;28;20562;-79
2022/08/02 14:24:45;;;;;;;2.05;0.40;;;40.20;30.20;;;;;;6227723;28;20056;-79
2022/08/02 14:27:47;;;;;;;0.60;0.45;;;40.10;30.20;;;;;;6229286;28;20479;-78
2022/08/02 14:30:48;;;;;;;2.42;0.57;;;40.20;30.20;;;;;;6228356;28;20068;-79
2022/08/02 14:33:51;;;;;;;1.17;0.50;;;40.20;30.20;;;;;;6228069;28;20054;-79
2022/08/02 14:36:53;;;;;;;1.35;0.47;;;40.10;30.30;;;;;;6227300;28;20042;-79
2022/08/02 14:39:55;;;;;;;2.55;0.40;;;40.00;30.60;;;;;;6229396;28;20057;-78
2022/08/02 16:26:07;;;;;;;0.30;0.30;;;36.10;31.90;;;;;;6358548;27;20356;-80
2022/08/02 16:29:09;;;;;;;1.25;0.40;;;37.80;30.00;;;;;;6232740;28;1604381;-78
2022/08/02 16:32:13;;;;;;;3.50;0.55;;;37.80;30.50;;;;;;6258258;28;20116;-78
2022/08/02 16:35:15;;;;;;;0.73;0.30;;;37.60;30.50;;;;;;6269279;28;20046;-78
2022/08/02 16:38:17;;;;;;;1.42;0.63;;;37.50;30.70;;;;;;6270240;28;20049;-78
2022/08/02 16:41:20;;;;;;;0.55;0.20;;;37.30;30.80;;;;;;6270660;28;20049;-78
2022/08/02 16:44:22;;;;;;;1.23;0.50;;;37.10;30.80;;;;;;6269150;28;20041;-78
2022/08/02 16:47:24;;;;;;;1.50;0.77;;;36.90;31.20;;;;;;6260441;28;20558;-78
2022/08/02 16:50:28;;;;;;;1.73;0.60;;;36.50;31.10;;;;;;6263158;28;20045;-78
2022/08/02 16:53:29;;;;;;;1.70;0.45;;;36.30;31.40;;;;;;6270669;28;20536;-78
2022/08/02 16:56:32;;;;;;;1.02;0.50;;;35.90;31.80;;;;;;6268976;28;20450;-78
2022/08/02 16:59:34;;;;;;;1.20;0.50;;;35.70;32.00;;;;;;6270325;28;20057;-78
2022/08/02 17:02:38;;;;;;;1.85;0.70;;;35.40;32.20;;;;;;6274167;28;20559;-79
2022/08/02 17:05:40;;;;;;;1.10;0.50;;;35.20;32.60;;;;;;6275974;28;20050;-78
2022/08/02 17:08:42;;;;;;;1.85;0.50;;;35.00;32.80;;;;;;6285763;23;20049;-82
2022/08/02 17:11:45;;;;;;;0.70;0.50;;;34.70;33.30;;;;;;6246339;28;20046;-82
2022/08/02 17:14:47;;;;;;;1.25;0.77;;;34.50;33.80;;;;;;6248257;28;20128;-85
2022/08/02 17:17:50;;;;;;;0.65;0.55;;;34.30;33.80;;;;;;6235182;28;20591;-84
2022/08/02 17:20:51;;;;;;;1.17;0.57;;;34.20;34.10;;;;;;6221609;28;20042;-84
2022/08/02 17:23:53;;;;;;;1.23;0.70;;;34.00;34.10;;;;;;6220896;28;20042;-84
2022/08/02 17:26:57;;;;;;;0.77;0.60;;;33.90;34.10;;;;;;6206950;28;20061;-84
2022/08/02 17:29:58;;;;;;;0.47;0.38;;;33.80;35.10;;;;;;6207480;28;20053;-85
2022/08/02 17:33:00;;;;;;;0.98;0.77;;;33.70;34.60;;;;;;6206760;28;20054;-84
2022/08/02 17:36:02;;;;;;;1.40;1.00;;;33.60;34.60;;;;;;6207396;28;20129;-84
2022/08/02 17:39:04;;;;;;;0.63;0.40;;;33.50;34.80;;;;;;6206372;28;20256;-84
2022/08/02 17:42:07;;;;;;;2.15;0.43;;;33.50;34.60;;;;;;6209178;28;20641;-84